KFFT/FFT METAR and TAF weather

Enter ICAO airport designator
Station Type Date Time Source
KFFT METAR 2021/10/22 17:53 UTC NOAA

KFFT 221753Z AUTO 00000KT 10SM OVC020 14/09 A3005 RMK AO2 SLP177 T01390089 10139 20100 58013


Station Type Date Time Source
KFFT Decoded METAR 2021/10/22 17:53 UTC NOAA

FRANKFORT CAPITAL CITY AIRPORT , KY, United States (KFFT) 38-11N 84-54W 236M
Oct 22, 2021 - 01:53 PM EDT / 2021.10.22 1753 UTC
Wind: Calm:0
Visibility: 10 mile(s):0
Sky conditions: overcast
Temperature: 57.0 F (13.9 C)
Dew Point: 48.0 F (8.9 C)
Relative Humidity: 71%
Pressure (altimeter): 30.05 in. Hg (1017 hPa)
Pressure tendency: 0.04 inches (1.3 hPa) lower than three hours ago
ob: KFFT 221753Z AUTO 00000KT 10SM OVC020 14/09 A3005 RMK AO2 SLP177 T01390089 10139 20100 58013
cycle: 18

Station Type Date Time Source
KFFT TAF UTC NOAA

Error!

Example: see airport list